createdAt,value
2022-08-29T00:00:27.070Z,26.20
2022-08-29T00:02:55.623Z,26.10
2022-08-29T00:05:25.145Z,26.00
2022-08-29T00:07:52.497Z,25.90
2022-08-29T00:10:19.948Z,25.90
2022-08-29T00:12:46.685Z,25.90
2022-08-29T00:15:14.337Z,25.80
2022-08-29T00:17:41.093Z,25.80
2022-08-29T00:20:09.228Z,25.90
2022-08-29T00:22:36.460Z,25.90
2022-08-29T00:25:05.659Z,25.80
2022-08-29T00:27:32.848Z,25.80
2022-08-29T00:30:00.378Z,25.80
2022-08-29T00:32:34.596Z,25.80
2022-08-29T00:35:06.703Z,25.80
2022-08-29T00:37:33.448Z,25.80
2022-08-29T00:40:00.359Z,25.70
2022-08-29T00:42:27.930Z,25.70
2022-08-29T00:44:54.800Z,25.60
2022-08-29T00:47:23.335Z,25.60
2022-08-29T00:49:54.283Z,25.70
2022-08-29T00:52:26.795Z,25.60
2022-08-29T00:54:54.050Z,25.60
2022-08-29T00:57:21.490Z,25.60
2022-08-29T00:59:48.761Z,25.60
2022-08-29T01:02:16.541Z,25.50
2022-08-29T01:04:43.913Z,25.50
2022-08-29T01:07:11.097Z,25.50
2022-08-29T01:09:38.645Z,25.70
2022-08-29T01:12:19.772Z,25.60
2022-08-29T01:14:52.098Z,25.50
2022-08-29T01:17:27.295Z,25.50
2022-08-29T01:19:54.101Z,25.60
2022-08-29T01:22:29.835Z,25.60
2022-08-29T01:24:58.371Z,25.60
2022-08-29T01:27:27.125Z,25.50
2022-08-29T01:29:53.808Z,25.50
2022-08-29T01:32:20.599Z,25.70
2022-08-29T01:34:54.971Z,25.80
2022-08-29T01:37:29.568Z,25.70
2022-08-29T01:39:56.294Z,25.60
2022-08-29T01:42:23.647Z,25.60
2022-08-29T01:44:52.655Z,25.50
2022-08-29T01:47:19.768Z,25.40
2022-08-29T01:49:46.566Z,25.40
2022-08-29T01:52:13.395Z,25.40
2022-08-29T01:54:43.914Z,25.40
2022-08-29T01:57:12.955Z,25.30
2022-08-29T01:59:40.473Z,25.30
2022-08-29T02:02:19.638Z,25.20
2022-08-29T02:04:47.393Z,25.20
2022-08-29T02:07:17.512Z,25.40
2022-08-29T02:09:45.870Z,25.60
2022-08-29T02:12:16.608Z,25.70
2022-08-29T02:14:43.440Z,25.70
2022-08-29T02:17:10.216Z,25.60
2022-08-29T02:19:37.335Z,25.50
2022-08-29T02:22:04.054Z,25.50
2022-08-29T02:24:30.868Z,25.50
2022-08-29T02:26:58.518Z,25.60
2022-08-29T02:29:26.260Z,25.70
2022-08-29T02:32:05.530Z,25.80
2022-08-29T02:34:33.643Z,25.90
2022-08-29T02:37:00.401Z,25.90
2022-08-29T02:39:27.902Z,25.80
2022-08-29T02:41:54.626Z,25.90
2022-08-29T02:44:21.308Z,26.00
2022-08-29T02:46:48.741Z,26.00
2022-08-29T02:49:15.760Z,26.00
2022-08-29T02:51:42.501Z,26.00
2022-08-29T02:54:09.832Z,26.00
2022-08-29T02:56:36.779Z,26.00
2022-08-29T02:59:03.748Z,26.00
2022-08-29T03:01:32.036Z,25.90
2022-08-29T03:03:58.726Z,25.90
2022-08-29T03:06:25.409Z,25.90
2022-08-29T03:08:54.174Z,25.80
2022-08-29T03:11:21.234Z,25.60
2022-08-29T03:13:47.905Z,25.50
2022-08-29T03:16:14.892Z,25.40
2022-08-29T03:18:41.716Z,25.50
2022-08-29T03:21:21.805Z,25.70
2022-08-29T03:23:49.423Z,25.80
2022-08-29T03:26:16.150Z,25.90
2022-08-29T03:28:43.725Z,25.90
2022-08-29T03:31:10.651Z,25.90
2022-08-29T03:33:37.769Z,25.80
2022-08-29T03:36:13.868Z,25.90
2022-08-29T03:38:41.270Z,25.70
2022-08-29T03:41:08.955Z,25.80
2022-08-29T03:43:35.888Z,25.80
2022-08-29T03:46:02.690Z,25.90
2022-08-29T03:48:29.516Z,26.00
2022-08-29T03:50:56.645Z,26.00
2022-08-29T03:53:23.512Z,25.90
2022-08-29T03:55:50.274Z,26.00
2022-08-29T03:58:17.013Z,25.90
2022-08-29T04:00:46.094Z,25.90
2022-08-29T04:03:15.247Z,25.90
2022-08-29T04:05:42.498Z,25.90
2022-08-29T04:08:09.369Z,25.90
2022-08-29T04:10:41.006Z,25.90
2022-08-29T04:13:08.411Z,25.80
2022-08-29T04:15:35.666Z,25.90
2022-08-29T04:18:06.844Z,25.90
2022-08-29T04:20:34.943Z,25.80
2022-08-29T04:23:01.704Z,25.80
2022-08-29T04:25:31.203Z,25.60
2022-08-29T04:28:00.712Z,25.40
2022-08-29T04:30:28.576Z,25.20
2022-08-29T04:32:55.348Z,25.20
2022-08-29T04:35:22.259Z,25.40
2022-08-29T04:37:49.392Z,25.40
2022-08-29T04:40:18.123Z,25.40
2022-08-29T04:42:46.790Z,25.50
2022-08-29T04:45:14.429Z,25.50
2022-08-29T04:47:41.906Z,25.50
2022-08-29T04:50:10.625Z,25.60
2022-08-29T04:52:37.306Z,25.70
2022-08-29T04:55:05.621Z,25.80
2022-08-29T04:57:33.599Z,25.80
2022-08-29T05:00:00.372Z,25.90
2022-08-29T05:02:28.220Z,25.90
2022-08-29T05:04:56.731Z,25.90
2022-08-29T05:07:25.522Z,25.90
2022-08-29T05:09:57.667Z,25.90
2022-08-29T05:12:25.759Z,25.90
2022-08-29T05:14:53.621Z,25.90
2022-08-29T05:17:21.171Z,25.90
2022-08-29T05:19:47.991Z,25.90
2022-08-29T05:22:15.272Z,25.90
2022-08-29T05:24:42.739Z,25.90
2022-08-29T05:27:10.763Z,25.90
2022-08-29T05:29:40.086Z,25.90
2022-08-29T05:32:09.198Z,25.90
2022-08-29T05:34:36.798Z,26.00
2022-08-29T05:37:04.820Z,26.00
2022-08-29T05:39:32.991Z,26.10
2022-08-29T05:41:59.818Z,26.10
2022-08-29T05:44:30.511Z,26.10
2022-08-29T05:47:01.058Z,26.10
2022-08-29T05:49:27.915Z,26.10
2022-08-29T05:51:55.473Z,26.10
2022-08-29T05:54:23.531Z,26.00
2022-08-29T05:56:51.338Z,26.00
2022-08-29T05:59:19.276Z,26.10
2022-08-29T06:01:47.920Z,26.10
2022-08-29T06:04:14.615Z,26.10
2022-08-29T06:06:41.743Z,26.20
2022-08-29T06:09:08.983Z,26.20
2022-08-29T06:11:35.684Z,26.20
2022-08-29T06:14:02.466Z,26.20
2022-08-29T06:16:33.591Z,26.20
2022-08-29T06:19:00.293Z,26.20
2022-08-29T06:21:27.037Z,26.20
2022-08-29T06:23:54.565Z,26.20
2022-08-29T06:26:21.289Z,26.30
2022-08-29T06:28:48.375Z,26.50
2022-08-29T06:31:21.035Z,26.50
2022-08-29T06:33:50.371Z,26.60
2022-08-29T06:36:17.372Z,26.60
2022-08-29T06:38:44.079Z,26.60
2022-08-29T06:41:12.478Z,26.60
2022-08-29T06:43:40.453Z,26.60
2022-08-29T06:46:09.550Z,26.60
2022-08-29T06:48:36.308Z,26.30
2022-08-29T06:51:03.757Z,26.20
2022-08-29T06:53:32.033Z,26.30
2022-08-29T06:56:03.758Z,26.40
2022-08-29T06:58:33.417Z,26.30
2022-08-29T07:01:05.488Z,26.30
2022-08-29T07:03:32.184Z,26.30
2022-08-29T07:05:58.938Z,26.40
2022-08-29T07:08:25.634Z,26.40
2022-08-29T07:10:52.385Z,26.40
2022-08-29T07:13:19.171Z,26.50
2022-08-29T07:15:45.946Z,26.50
2022-08-29T07:18:12.760Z,26.60
2022-08-29T07:20:40.168Z,26.60
2022-08-29T07:23:14.237Z,26.60
2022-08-29T07:25:41.151Z,26.70
2022-08-29T07:28:07.934Z,26.80
2022-08-29T07:30:37.228Z,26.80
2022-08-29T07:33:05.552Z,26.80
2022-08-29T07:35:33.370Z,26.80
2022-08-29T07:38:01.369Z,26.70
2022-08-29T07:40:29.308Z,26.80
2022-08-29T07:42:56.151Z,26.80
2022-08-29T07:45:22.998Z,26.80
2022-08-29T07:47:52.299Z,26.70
2022-08-29T07:50:19.173Z,26.60
2022-08-29T07:52:47.737Z,26.60
2022-08-29T07:55:15.550Z,26.50
2022-08-29T07:57:42.301Z,26.50
2022-08-29T08:00:10.991Z,26.60
2022-08-29T08:02:37.707Z,26.70
2022-08-29T08:05:06.738Z,26.70
2022-08-29T08:07:35.392Z,26.80
2022-08-29T08:10:02.801Z,26.80
2022-08-29T08:12:29.776Z,26.90
2022-08-29T08:14:57.088Z,26.90
2022-08-29T08:17:23.950Z,27.00
2022-08-29T08:19:50.640Z,27.00
2022-08-29T08:22:17.339Z,26.90
2022-08-29T08:24:44.131Z,27.00
2022-08-29T08:27:10.952Z,26.90
2022-08-29T08:29:37.633Z,26.80
2022-08-29T08:32:04.661Z,26.90
2022-08-29T08:34:35.407Z,26.80
2022-08-29T08:37:07.060Z,26.80
2022-08-29T08:39:33.796Z,26.80
2022-08-29T08:42:04.310Z,26.80
2022-08-29T08:44:38.431Z,26.80
2022-08-29T08:47:06.555Z,26.80
2022-08-29T08:49:46.246Z,26.80
2022-08-29T08:52:22.679Z,26.80
2022-08-29T08:54:55.338Z,26.80
2022-08-29T08:57:22.204Z,26.80
2022-08-29T08:59:55.430Z,26.90
2022-08-29T09:02:42.996Z,27.00
2022-08-29T09:05:33.738Z,27.10
2022-08-29T09:08:09.565Z,27.10
2022-08-29T09:10:50.520Z,27.10
2022-08-29T09:13:21.593Z,27.00
2022-08-29T09:15:50.346Z,27.00
2022-08-29T09:18:32.226Z,27.00
2022-08-29T09:21:06.667Z,27.00
2022-08-29T09:23:44.502Z,27.20
2022-08-29T09:26:13.667Z,27.30
2022-08-29T09:28:41.017Z,27.30
2022-08-29T09:31:28.584Z,27.10
2022-08-29T09:33:56.716Z,27.20
2022-08-29T09:36:47.549Z,27.20
2022-08-29T09:39:27.601Z,27.20
2022-08-29T09:41:57.811Z,27.30
2022-08-29T09:44:29.593Z,27.40
2022-08-29T09:47:11.583Z,27.40
2022-08-29T09:49:40.039Z,27.40
2022-08-29T09:52:17.773Z,27.40
2022-08-29T09:54:44.684Z,27.40
2022-08-29T09:57:17.301Z,27.30
2022-08-29T09:59:45.598Z,27.20
2022-08-29T10:02:21.945Z,27.00
2022-08-29T10:04:52.547Z,27.10
2022-08-29T10:07:27.423Z,27.10
2022-08-29T10:09:55.528Z,27.10
2022-08-29T10:12:47.646Z,27.10
2022-08-29T10:15:46.607Z,27.20
2022-08-29T10:18:30.906Z,27.10
2022-08-29T10:21:07.675Z,27.10
2022-08-29T10:23:43.912Z,27.10
2022-08-29T10:26:26.391Z,27.10
2022-08-29T10:29:22.072Z,27.30
2022-08-29T10:31:55.900Z,27.30
2022-08-29T10:34:25.958Z,27.10
2022-08-29T10:36:57.906Z,27.10
2022-08-29T10:39:44.473Z,27.10
2022-08-29T10:42:16.046Z,27.10
2022-08-29T10:44:56.510Z,27.00
2022-08-29T10:47:23.206Z,27.00
2022-08-29T10:50:16.947Z,26.90
2022-08-29T10:52:54.719Z,26.90
2022-08-29T10:55:31.760Z,26.90
2022-08-29T10:58:12.377Z,26.90
2022-08-29T11:00:53.865Z,27.00
2022-08-29T11:03:36.165Z,27.00
2022-08-29T11:06:14.017Z,27.00
2022-08-29T11:08:47.188Z,27.10
2022-08-29T11:11:21.183Z,27.40
2022-08-29T11:13:51.206Z,27.40
2022-08-29T11:16:24.868Z,27.20
2022-08-29T11:18:55.199Z,27.10
2022-08-29T11:21:24.939Z,27.10
2022-08-29T11:23:55.508Z,27.00
2022-08-29T11:26:31.099Z,27.00
2022-08-29T11:29:10.569Z,27.00
2022-08-29T11:31:38.079Z,27.00
2022-08-29T11:34:17.551Z,27.00
2022-08-29T11:36:50.086Z,27.10
2022-08-29T11:39:35.495Z,27.00
2022-08-29T11:42:03.849Z,27.00
2022-08-29T11:44:41.064Z,26.90
2022-08-29T11:47:26.097Z,26.90
2022-08-29T11:49:54.243Z,27.00
2022-08-29T11:52:26.034Z,27.00
2022-08-29T11:55:16.051Z,27.10
2022-08-29T11:57:51.508Z,27.10
2022-08-29T12:03:00.156Z,27.90
2022-08-29T12:05:30.048Z,28.00
2022-08-29T12:08:35.522Z,28.10
2022-08-29T12:11:01.863Z,28.10
2022-08-29T12:13:44.183Z,28.10
2022-08-29T12:16:11.398Z,28.20
2022-08-29T12:18:44.505Z,28.30
2022-08-29T12:21:41.605Z,28.30
2022-08-29T12:24:26.755Z,28.40
2022-08-29T12:26:55.569Z,28.50
2022-08-29T12:29:26.670Z,28.60
2022-08-29T12:32:22.775Z,28.40
2022-08-29T12:35:11.069Z,28.30
2022-08-29T12:38:07.278Z,28.30
2022-08-29T12:40:37.756Z,28.40
2022-08-29T12:43:04.637Z,28.30
2022-08-29T12:45:32.766Z,28.30
2022-08-29T12:48:08.761Z,28.40
2022-08-29T12:50:37.159Z,28.60
2022-08-29T12:53:15.769Z,28.60
2022-08-29T12:55:50.256Z,28.60
2022-08-29T12:58:32.258Z,28.60
2022-08-29T13:01:05.248Z,28.70
2022-08-29T13:03:33.330Z,28.70
2022-08-29T13:06:09.289Z,28.80
2022-08-29T13:08:39.564Z,28.70
2022-08-29T13:11:08.583Z,28.50
2022-08-29T13:13:36.035Z,28.50
2022-08-29T13:16:05.672Z,28.40
2022-08-29T13:18:40.489Z,28.50
2022-08-29T13:21:24.522Z,28.60
2022-08-29T13:24:20.514Z,28.60
2022-08-29T13:27:05.658Z,28.60
2022-08-29T13:29:36.138Z,28.50
2022-08-29T13:32:18.736Z,28.50
2022-08-29T13:35:02.873Z,28.40
2022-08-29T13:37:32.975Z,28.40
2022-08-29T13:40:20.465Z,28.70
2022-08-29T13:42:47.394Z,28.60
2022-08-29T13:45:14.616Z,28.50
2022-08-29T13:47:47.920Z,28.40
2022-08-29T13:50:15.186Z,28.40
2022-08-29T13:52:41.943Z,28.40
2022-08-29T13:55:09.964Z,28.40
2022-08-29T13:57:39.057Z,28.40
2022-08-29T14:00:07.461Z,28.40
2022-08-29T14:02:35.760Z,28.40
2022-08-29T14:05:02.593Z,28.50
2022-08-29T14:07:31.000Z,28.50
2022-08-29T14:09:58.896Z,28.30
2022-08-29T14:12:33.445Z,28.20
2022-08-29T14:15:05.372Z,28.20
2022-08-29T14:17:35.968Z,28.10
2022-08-29T14:20:03.116Z,28.00
2022-08-29T14:22:29.796Z,28.00
2022-08-29T14:24:56.553Z,28.00
2022-08-29T14:27:23.998Z,28.00
2022-08-29T14:29:51.330Z,28.00
2022-08-29T14:32:18.155Z,28.00
2022-08-29T14:34:50.925Z,28.00
2022-08-29T14:37:18.348Z,28.00
2022-08-29T14:39:45.064Z,27.90
2022-08-29T14:42:16.740Z,28.00
2022-08-29T14:44:43.424Z,28.00
2022-08-29T14:47:10.145Z,28.00
2022-08-29T14:49:37.585Z,28.00
2022-08-29T14:52:04.837Z,27.90
2022-08-29T14:54:31.754Z,28.00
2022-08-29T14:56:58.691Z,28.00
2022-08-29T14:59:25.674Z,27.90
2022-08-29T15:01:54.803Z,27.90
2022-08-29T15:04:35.056Z,28.00
2022-08-29T15:07:05.428Z,27.90
2022-08-29T15:09:33.040Z,27.90
2022-08-29T15:11:59.777Z,27.90
2022-08-29T15:14:26.473Z,27.90
2022-08-29T15:16:53.978Z,27.90
2022-08-29T15:22:09.656Z,28.00
2022-08-29T15:24:36.483Z,28.00
2022-08-29T15:27:03.752Z,28.00
2022-08-29T15:29:30.531Z,28.00
2022-08-29T15:31:57.415Z,28.10
2022-08-29T15:34:25.442Z,28.10
2022-08-29T15:36:53.098Z,28.30
2022-08-29T15:39:19.824Z,28.40
2022-08-29T15:41:46.608Z,28.30
2022-08-29T15:44:13.746Z,28.20
2022-08-29T15:46:47.932Z,28.10
2022-08-29T15:49:17.329Z,28.00
2022-08-29T15:51:44.008Z,28.10
2022-08-29T15:54:10.746Z,28.10
2022-08-29T15:56:38.325Z,28.20
2022-08-29T15:59:06.120Z,28.10
2022-08-29T16:01:41.251Z,28.00
2022-08-29T16:04:09.127Z,28.00
2022-08-29T16:06:36.417Z,28.00
2022-08-29T16:09:04.183Z,27.90
2022-08-29T16:11:42.508Z,28.00
2022-08-29T16:16:57.252Z,28.10
2022-08-29T16:19:24.794Z,28.20
2022-08-29T16:21:51.512Z,28.20
2022-08-29T16:24:18.392Z,28.10
2022-08-29T16:26:46.086Z,28.10
2022-08-29T16:29:13.051Z,28.20
2022-08-29T16:31:40.083Z,28.10
2022-08-29T16:34:07.826Z,28.10
2022-08-29T16:36:35.065Z,28.30
2022-08-29T16:39:04.708Z,28.20
2022-08-29T16:41:32.225Z,28.30
2022-08-29T16:43:59.090Z,28.20
2022-08-29T16:46:27.624Z,28.20
2022-08-29T16:48:57.913Z,28.20
2022-08-29T16:51:25.748Z,28.10
2022-08-29T16:53:52.535Z,28.20
2022-08-29T16:56:19.508Z,28.20
2022-08-29T16:59:01.732Z,28.10
2022-08-29T17:01:30.565Z,28.10
2022-08-29T17:03:57.889Z,28.10
2022-08-29T17:06:24.630Z,28.00
2022-08-29T17:09:11.683Z,28.00
2022-08-29T17:11:57.533Z,28.00
2022-08-29T17:14:47.426Z,28.00
2022-08-29T17:17:17.266Z,27.90
2022-08-29T17:19:44.581Z,27.90
2022-08-29T17:22:15.821Z,27.90
2022-08-29T17:24:43.441Z,27.90
2022-08-29T17:27:10.558Z,28.00
2022-08-29T17:29:41.882Z,28.00
2022-08-29T17:32:09.985Z,28.00
2022-08-29T17:34:37.829Z,28.00
2022-08-29T17:37:05.234Z,28.00
2022-08-29T17:39:31.965Z,28.10
2022-08-29T17:41:58.839Z,28.10
2022-08-29T17:44:25.653Z,28.00
2022-08-29T17:46:52.323Z,28.00
2022-08-29T17:49:19.235Z,28.00
2022-08-29T17:51:53.420Z,27.90
2022-08-29T17:54:21.679Z,27.90
2022-08-29T17:57:00.774Z,27.90
2022-08-29T17:59:29.930Z,27.90
2022-08-29T18:01:57.519Z,27.90
2022-08-29T18:04:25.792Z,27.90
2022-08-29T18:06:53.229Z,27.90
2022-08-29T18:09:21.406Z,27.90
2022-08-29T18:11:50.012Z,27.90
2022-08-29T18:14:17.530Z,27.90
2022-08-29T18:16:44.284Z,27.80
2022-08-29T18:19:13.206Z,27.90
2022-08-29T18:21:44.012Z,27.90
2022-08-29T18:24:11.506Z,27.80
2022-08-29T18:26:39.772Z,27.70
2022-08-29T18:29:06.479Z,27.70
2022-08-29T18:31:33.181Z,27.70
2022-08-29T18:34:01.307Z,27.70
2022-08-29T18:36:32.201Z,27.80
2022-08-29T18:38:59.348Z,27.80
2022-08-29T18:41:26.737Z,27.80
2022-08-29T18:43:53.646Z,27.80
2022-08-29T18:46:20.779Z,27.90
2022-08-29T18:48:47.593Z,27.80
2022-08-29T18:51:14.778Z,27.80
2022-08-29T18:53:41.527Z,27.80
2022-08-29T18:56:08.611Z,27.80
2022-08-29T18:58:35.374Z,27.80
2022-08-29T19:01:27.064Z,27.80
2022-08-29T19:03:58.971Z,27.80
2022-08-29T19:06:27.414Z,27.90
2022-08-29T19:08:54.559Z,27.90
2022-08-29T19:11:21.351Z,27.90
2022-08-29T19:13:48.790Z,28.00
2022-08-29T19:16:20.215Z,27.90
2022-08-29T19:18:47.051Z,27.90
2022-08-29T19:21:14.220Z,27.80
2022-08-29T19:23:46.020Z,27.80
2022-08-29T19:26:22.995Z,27.70
2022-08-29T19:28:52.094Z,27.80
2022-08-29T19:31:21.260Z,27.80
2022-08-29T19:33:48.287Z,27.70
2022-08-29T19:36:17.368Z,27.70
2022-08-29T19:38:44.064Z,27.70
2022-08-29T19:41:12.540Z,27.80
2022-08-29T19:43:40.228Z,27.80
2022-08-29T19:46:16.653Z,27.90
2022-08-29T19:48:48.001Z,27.80
2022-08-29T19:51:17.411Z,27.90
2022-08-29T19:53:44.656Z,27.90
2022-08-29T19:56:12.514Z,27.90
2022-08-29T19:58:40.343Z,27.90
2022-08-29T20:01:08.163Z,27.90
2022-08-29T20:03:41.127Z,27.90
2022-08-29T20:06:09.132Z,27.90
2022-08-29T20:08:36.798Z,27.90
2022-08-29T20:11:04.488Z,27.90
2022-08-29T20:13:35.724Z,27.90
2022-08-29T20:16:04.279Z,27.80
2022-08-29T20:18:32.551Z,27.80
2022-08-29T20:21:00.677Z,27.80
2022-08-29T20:23:27.805Z,27.80
2022-08-29T20:25:55.783Z,27.80
2022-08-29T20:28:23.234Z,27.80
2022-08-29T20:30:51.179Z,27.80
2022-08-29T20:33:18.836Z,27.80
2022-08-29T20:36:04.649Z,27.70
2022-08-29T20:38:32.492Z,27.80
2022-08-29T20:41:01.476Z,27.70
2022-08-29T20:43:28.733Z,27.70
2022-08-29T20:45:58.337Z,27.70
2022-08-29T20:48:31.253Z,27.70
2022-08-29T20:51:01.486Z,27.80
2022-08-29T20:53:32.648Z,27.70
2022-08-29T20:56:00.171Z,27.70
2022-08-29T20:58:28.994Z,27.70
2022-08-29T21:01:01.323Z,27.70
2022-08-29T21:03:46.634Z,27.70
2022-08-29T21:06:17.449Z,27.70
2022-08-29T21:08:44.134Z,27.70
2022-08-29T21:11:14.675Z,27.70
2022-08-29T21:13:43.245Z,27.60
2022-08-29T21:16:11.094Z,27.70
2022-08-29T21:18:39.478Z,27.70
2022-08-29T21:21:06.325Z,27.60
2022-08-29T21:23:34.225Z,27.70
2022-08-29T21:26:01.819Z,27.70
2022-08-29T21:28:31.206Z,27.60
2022-08-29T21:31:02.357Z,27.60
2022-08-29T21:33:29.104Z,27.60
2022-08-29T21:35:59.683Z,27.60
2022-08-29T21:38:26.631Z,27.60
2022-08-29T21:40:53.419Z,27.60
2022-08-29T21:43:20.749Z,27.60
2022-08-29T21:45:47.958Z,27.60
2022-08-29T21:48:14.795Z,27.60
2022-08-29T21:50:41.503Z,27.60
2022-08-29T21:53:11.592Z,27.60
2022-08-29T21:55:38.292Z,27.60
2022-08-29T21:58:05.412Z,27.60
2022-08-29T22:00:34.366Z,27.60
2022-08-29T22:03:02.361Z,27.60
2022-08-29T22:05:30.880Z,27.60
2022-08-29T22:07:58.008Z,27.60
2022-08-29T22:10:26.438Z,27.60
2022-08-29T22:12:53.242Z,27.60
2022-08-29T22:15:41.927Z,27.60
2022-08-29T22:18:09.514Z,27.60
2022-08-29T22:20:37.602Z,27.60
2022-08-29T22:23:05.644Z,27.60
2022-08-29T22:25:32.394Z,27.60
2022-08-29T22:27:59.046Z,27.60
2022-08-29T22:30:31.923Z,27.60
2022-08-29T22:33:00.076Z,27.60
2022-08-29T22:35:28.715Z,27.60
2022-08-29T22:37:55.413Z,27.60
2022-08-29T22:40:22.591Z,27.60
2022-08-29T22:42:49.499Z,27.60
2022-08-29T22:45:16.841Z,27.60
2022-08-29T22:47:44.853Z,27.60
2022-08-29T22:50:15.748Z,27.60
2022-08-29T22:52:42.480Z,27.60
2022-08-29T22:55:10.266Z,27.60
2022-08-29T22:57:37.746Z,27.60
2022-08-29T23:00:06.551Z,27.60
2022-08-29T23:02:33.567Z,27.60
2022-08-29T23:05:03.483Z,27.60
2022-08-29T23:07:32.053Z,27.60
2022-08-29T23:09:58.721Z,27.60
2022-08-29T23:12:25.775Z,27.60
2022-08-29T23:14:52.733Z,27.60
2022-08-29T23:17:20.013Z,27.60
2022-08-29T23:19:49.423Z,27.60
2022-08-29T23:22:16.755Z,27.60
2022-08-29T23:24:58.881Z,27.60
2022-08-29T23:27:27.046Z,27.60
2022-08-29T23:29:53.731Z,27.60
2022-08-29T23:32:20.407Z,27.60
2022-08-29T23:34:47.098Z,27.60
2022-08-29T23:37:13.774Z,27.60
2022-08-29T23:39:40.456Z,27.60
2022-08-29T23:42:07.213Z,27.60
2022-08-29T23:44:33.930Z,27.60
2022-08-29T23:47:00.617Z,27.60
2022-08-29T23:49:27.898Z,27.60
2022-08-29T23:51:54.568Z,27.60
2022-08-29T23:54:21.257Z,27.60
2022-08-29T23:56:47.978Z,27.60
2022-08-29T23:59:34.615Z,27.60
